createdAt,value
2023-03-29T00:02:34.333Z,6.18
2023-03-29T00:12:37.997Z,6.14
2023-03-29T00:22:46.815Z,6.26
2023-03-29T00:32:50.136Z,6.22
2023-03-29T00:42:56.233Z,6.22
2023-03-29T00:53:03.566Z,6.28
2023-03-29T01:03:13.907Z,6.33
2023-03-29T01:13:26.286Z,6.43
2023-03-29T01:23:51.243Z,6.44
2023-03-29T01:34:04.474Z,6.56
2023-03-29T01:44:12.103Z,6.65
2023-03-29T01:54:19.833Z,6.70
2023-03-29T02:04:29.072Z,6.81
2023-03-29T02:14:33.424Z,6.76
2023-03-29T02:24:38.181Z,6.76
2023-03-29T02:34:47.732Z,6.89
2023-03-29T02:44:53.520Z,6.96
2023-03-29T02:55:00.473Z,7.08
2023-03-29T03:05:03.774Z,7.10
2023-03-29T03:15:09.725Z,7.20
2023-03-29T03:25:16.815Z,7.23
2023-03-29T03:35:21.608Z,7.32
2023-03-29T03:45:24.759Z,7.38
2023-03-29T03:55:51.190Z,7.33
2023-03-29T04:06:01.671Z,7.43
2023-03-29T04:16:14.916Z,7.37
2023-03-29T04:26:18.364Z,7.42
2023-03-29T04:36:29.056Z,7.50
2023-03-29T04:46:33.349Z,7.56
2023-03-29T04:56:56.838Z,7.65
2023-03-29T05:07:11.768Z,7.74
2023-03-29T05:17:16.372Z,7.81
2023-03-29T05:27:22.908Z,7.90
2023-03-29T05:37:40.309Z,8.01
2023-03-29T05:47:43.543Z,8.12
2023-03-29T05:57:48.010Z,8.20
2023-03-29T06:07:52.117Z,8.35
2023-03-29T06:18:19.248Z,8.47
2023-03-29T06:28:24.006Z,8.59
2023-03-29T06:38:28.751Z,8.66
2023-03-29T06:48:31.790Z,8.89
2023-03-29T06:58:36.693Z,9.11
2023-03-29T07:08:52.406Z,9.38
2023-03-29T07:19:33.259Z,9.40
2023-03-29T07:29:58.184Z,9.59
2023-03-29T07:40:09.011Z,9.70
2023-03-29T07:50:32.641Z,9.71
2023-03-29T08:00:40.177Z,9.77
2023-03-29T08:11:03.588Z,9.61
2023-03-29T08:21:17.202Z,9.84
2023-03-29T08:31:24.237Z,10.12
2023-03-29T08:41:41.674Z,10.32
2023-03-29T08:51:48.165Z,10.57
2023-03-29T09:01:57.011Z,10.80
2023-03-29T09:12:12.075Z,10.90
2023-03-29T09:22:29.807Z,10.79
2023-03-29T09:32:39.170Z,10.78
2023-03-29T09:42:45.953Z,10.99
2023-03-29T09:52:50.673Z,11.03
2023-03-29T10:03:00.913Z,10.83
2023-03-29T10:13:23.733Z,11.11
2023-03-29T10:23:32.551Z,11.43
2023-03-29T10:33:37.725Z,11.99
2023-03-29T10:43:47.203Z,12.58
2023-03-29T10:53:50.185Z,12.79
2023-03-29T11:04:16.987Z,13.20
2023-03-29T11:14:35.748Z,13.56
2023-03-29T11:24:53.976Z,13.97
2023-03-29T11:35:08.152Z,14.09
2023-03-29T11:45:18.923Z,14.80
2023-03-29T11:55:26.227Z,14.82
2023-03-29T12:05:43.720Z,15.18
2023-03-29T12:15:58.953Z,15.03
2023-03-29T12:26:10.757Z,15.01
2023-03-29T12:36:36.507Z,15.30
2023-03-29T12:47:30.161Z,15.62
2023-03-29T12:57:43.156Z,15.73
2023-03-29T13:07:48.471Z,16.27
2023-03-29T13:18:02.634Z,16.13
2023-03-29T13:28:14.309Z,16.17
2023-03-29T13:38:21.988Z,16.11
2023-03-29T13:48:29.370Z,16.02
2023-03-29T13:58:40.257Z,16.34
2023-03-29T14:08:45.837Z,16.55
2023-03-29T14:18:51.444Z,16.41
2023-03-29T14:28:58.048Z,16.23
2023-03-29T14:39:05.592Z,16.23
2023-03-29T14:49:13.663Z,16.44
2023-03-29T14:59:27.229Z,16.55
2023-03-29T15:09:35.180Z,16.87
2023-03-29T15:19:38.366Z,17.07
2023-03-29T15:29:45.312Z,16.85
2023-03-29T15:39:49.693Z,16.37
2023-03-29T15:49:54.221Z,16.20
2023-03-29T16:00:05.703Z,16.37
2023-03-29T16:10:17.014Z,16.23
2023-03-29T16:20:20.833Z,16.28
2023-03-29T16:30:25.990Z,16.25
2023-03-29T16:40:38.446Z,16.19
2023-03-29T16:50:43.289Z,16.08
2023-03-29T17:00:51.918Z,15.89
2023-03-29T17:10:57.774Z,15.86
2023-03-29T17:21:07.724Z,15.80
2023-03-29T17:31:12.781Z,15.50
2023-03-29T17:41:17.420Z,15.43
2023-03-29T17:51:23.675Z,15.22
2023-03-29T18:01:27.603Z,15.08
2023-03-29T18:11:32.448Z,14.95
2023-03-29T18:21:35.520Z,14.91
2023-03-29T18:31:39.934Z,14.96
2023-03-29T18:41:42.963Z,14.97
2023-03-29T18:51:47.683Z,14.89
2023-03-29T19:01:51.173Z,14.79
2023-03-29T19:11:55.749Z,14.73
2023-03-29T19:22:00.544Z,14.59
2023-03-29T19:32:06.841Z,14.48
2023-03-29T19:42:09.854Z,14.31
2023-03-29T19:52:14.313Z,14.27
2023-03-29T20:02:17.784Z,14.21
2023-03-29T20:12:22.195Z,14.18
2023-03-29T20:22:26.255Z,14.07
2023-03-29T20:32:31.078Z,14.00
2023-03-29T20:42:34.634Z,13.99
2023-03-29T20:52:39.126Z,13.93
2023-03-29T21:02:42.263Z,13.95
2023-03-29T21:12:46.844Z,13.96
2023-03-29T21:22:49.850Z,13.91
2023-03-29T21:32:54.340Z,13.86
2023-03-29T21:42:57.336Z,13.91
2023-03-29T21:53:02.314Z,13.90
2023-03-29T22:03:05.450Z,13.87
2023-03-29T22:13:09.908Z,13.93
2023-03-29T22:23:13.339Z,13.91
2023-03-29T22:33:17.661Z,13.74
2023-03-29T22:43:21.525Z,13.73
2023-03-29T22:53:26.144Z,13.74
2023-03-29T23:03:29.113Z,13.87
2023-03-29T23:13:35.172Z,13.81
2023-03-29T23:23:38.302Z,13.81
2023-03-29T23:33:43.463Z,13.85
2023-03-29T23:43:50.116Z,13.97
2023-03-29T23:53:54.708Z,14.16
